createdAt,value
2022-12-20T00:01:19.695Z,101933.13
2022-12-20T00:04:00.284Z,101937.59
2022-12-20T00:06:46.296Z,101921.88
2022-12-20T00:09:20.208Z,101922.53
2022-12-20T00:11:54.225Z,101921.22
2022-12-20T00:14:27.735Z,101917.19
2022-12-20T00:17:03.291Z,101917.41
2022-12-20T00:19:37.250Z,101926.13
2022-12-20T00:22:11.059Z,101915.94
2022-12-20T00:24:42.617Z,101918.03
2022-12-20T00:27:10.300Z,101917.59
2022-12-20T00:29:54.138Z,101906.53
2022-12-20T00:32:21.812Z,101909.09
2022-12-20T00:34:55.602Z,101902.50
2022-12-20T00:37:24.169Z,101917.63
2022-12-20T00:39:57.682Z,101901.25
2022-12-20T00:42:26.242Z,101907.41
2022-12-20T00:44:53.793Z,101908.06
2022-12-20T00:47:27.630Z,101915.28
2022-12-20T00:49:55.273Z,101900.81
2022-12-20T00:52:38.145Z,101897.63
2022-12-20T00:55:07.089Z,101896.16
2022-12-20T00:57:40.737Z,101900.22
2022-12-20T01:00:10.765Z,101889.16
2022-12-20T01:02:51.655Z,101890.66
2022-12-20T01:05:31.347Z,101881.47
2022-12-20T01:08:01.382Z,101871.06
2022-12-20T01:10:30.867Z,101862.38
2022-12-20T01:13:09.651Z,101862.16
2022-12-20T01:15:39.289Z,101855.78
2022-12-20T01:18:07.923Z,101855.78
2022-12-20T01:20:38.475Z,101859.19
2022-12-20T01:23:08.143Z,101852.81
2022-12-20T01:25:42.586Z,101850.25
2022-12-20T01:28:11.069Z,101854.06
2022-12-20T01:30:42.238Z,101858.53
2022-12-20T01:33:09.722Z,101843.41
2022-12-20T01:35:39.387Z,101848.13
2022-12-20T01:38:29.638Z,101834.31
2022-12-20T01:41:04.461Z,101838.34
2022-12-20T01:43:55.924Z,101830.69
2022-12-20T01:46:26.216Z,101821.28
2022-12-20T01:49:05.250Z,101832.13
2022-12-20T01:51:33.385Z,101819.59
2022-12-20T01:54:08.234Z,101831.09
2022-12-20T01:56:35.961Z,101817.25
2022-12-20T01:59:14.113Z,101842.56
2022-12-20T02:01:43.776Z,101843.19
2022-12-20T02:04:17.837Z,101846.44
2022-12-20T02:06:50.455Z,101848.34
2022-12-20T02:09:19.553Z,101835.13
2022-12-20T02:12:26.680Z,101858.53
2022-12-20T02:15:03.447Z,101863.22
2022-12-20T02:18:11.456Z,101861.31
2022-12-20T02:21:10.384Z,101856.16
2022-12-20T02:24:12.955Z,101860.66
2022-12-20T02:27:17.925Z,101874.28
2022-12-20T02:30:05.002Z,101866.19
2022-12-20T02:32:44.478Z,101865.13
2022-12-20T02:35:30.247Z,101864.06
2022-12-20T02:38:06.640Z,101840.00
2022-12-20T02:40:42.364Z,101866.00
2022-12-20T02:43:29.765Z,101859.59
2022-12-20T02:46:16.871Z,101861.31
2022-12-20T02:48:59.196Z,101857.44
2022-12-20T02:51:34.593Z,101850.63
2022-12-20T02:54:08.473Z,101850.00
2022-12-20T02:56:39.313Z,101860.84
2022-12-20T02:59:30.544Z,101855.53
2022-12-20T03:02:13.188Z,101859.34
2022-12-20T03:04:40.849Z,101848.72
2022-12-20T03:07:13.337Z,101857.00
2022-12-20T03:09:46.886Z,101851.06
2022-12-20T03:12:20.317Z,101866.78
2022-12-20T03:14:47.915Z,101854.66
2022-12-20T03:17:16.181Z,101860.84
2022-12-20T03:19:43.742Z,101842.97
2022-12-20T03:22:12.470Z,101845.72
2022-12-20T03:24:40.521Z,101838.75
2022-12-20T03:27:12.004Z,101862.53
2022-12-20T03:29:43.559Z,101857.88
2022-12-20T03:32:12.417Z,101832.56
2022-12-20T03:34:52.227Z,101853.19
2022-12-20T03:37:19.847Z,101840.44
2022-12-20T03:39:50.494Z,101831.06
2022-12-20T03:42:18.780Z,101833.84
2022-12-20T03:44:55.499Z,101821.72
2022-12-20T03:47:36.699Z,101814.47
2022-12-20T03:50:10.719Z,101815.34
2022-12-20T03:52:46.296Z,101809.59
2022-12-20T03:55:20.756Z,101816.59
2022-12-20T03:57:48.414Z,101813.41
2022-12-20T04:00:21.972Z,101798.09
2022-12-20T04:03:01.791Z,101803.41
2022-12-20T04:05:37.500Z,101802.34
2022-12-20T04:08:09.099Z,101796.81
2022-12-20T04:11:16.994Z,101797.91
2022-12-20T04:13:53.433Z,101798.75
2022-12-20T04:16:22.899Z,101787.91
2022-12-20T04:19:04.574Z,101773.00
2022-12-20T04:21:41.128Z,101768.97
2022-12-20T04:24:24.288Z,101761.94
2022-12-20T04:26:53.402Z,101750.25
2022-12-20T04:29:36.605Z,101760.25
2022-12-20T04:32:05.193Z,101759.19
2022-12-20T04:34:33.139Z,101747.72
2022-12-20T04:37:15.962Z,101762.59
2022-12-20T04:39:44.400Z,101748.13
2022-12-20T04:42:15.963Z,101753.22
2022-12-20T04:45:12.583Z,101758.75
2022-12-20T04:47:49.494Z,101751.09
2022-12-20T04:50:19.845Z,101745.38
2022-12-20T04:53:06.273Z,101750.69
2022-12-20T04:55:41.245Z,101750.06
2022-12-20T04:58:18.084Z,101756.63
2022-12-20T05:00:53.666Z,101768.13
2022-12-20T05:03:23.819Z,101764.28
2022-12-20T05:05:52.264Z,101777.72
2022-12-20T05:08:19.673Z,101774.97
2022-12-20T05:10:48.501Z,101771.13
2022-12-20T05:13:17.046Z,101763.91
2022-12-20T05:15:45.522Z,101764.28
2022-12-20T05:18:17.724Z,101762.63
2022-12-20T05:20:45.746Z,101743.44
2022-12-20T05:23:40.513Z,101752.41
2022-12-20T05:26:18.801Z,101756.25
2022-12-20T05:28:47.942Z,101757.06
2022-12-20T05:31:16.776Z,101758.38
2022-12-20T05:33:46.288Z,101756.84
2022-12-20T05:36:16.368Z,101759.00
2022-12-20T05:38:56.720Z,101757.94
2022-12-20T05:41:30.572Z,101752.84
2022-12-20T05:44:03.904Z,101754.13
2022-12-20T05:46:31.859Z,101757.94
2022-12-20T05:48:59.848Z,101753.25
2022-12-20T05:51:27.262Z,101760.06
2022-12-20T05:53:57.164Z,101749.00
2022-12-20T05:56:26.488Z,101759.66
2022-12-20T05:58:54.191Z,101746.63
2022-12-20T06:01:23.927Z,101766.03
2022-12-20T06:03:53.315Z,101770.72
2022-12-20T06:06:20.865Z,101771.13
2022-12-20T06:08:56.829Z,101770.91
2022-12-20T06:11:34.662Z,101772.41
2022-12-20T06:14:17.548Z,101772.84
2022-12-20T06:16:46.380Z,101771.97
2022-12-20T06:19:21.171Z,101773.03
2022-12-20T06:22:11.981Z,101781.97
2022-12-20T06:25:13.698Z,101776.25
2022-12-20T06:27:42.384Z,101780.91
2022-12-20T06:30:10.817Z,101781.34
2022-12-20T06:32:49.878Z,101784.31
2022-12-20T06:35:18.414Z,101787.28
2022-12-20T06:37:46.009Z,101784.53
2022-12-20T06:40:20.589Z,101782.81
2022-12-20T06:42:56.338Z,101787.28
2022-12-20T06:45:25.261Z,101795.59
2022-12-20T06:47:59.695Z,101802.19
2022-12-20T06:50:46.211Z,101807.03
2022-12-20T06:53:31.463Z,101804.28
2022-12-20T06:56:01.021Z,101810.06
2022-12-20T06:58:30.486Z,101813.63
2022-12-20T07:01:00.004Z,101820.03
2022-12-20T07:03:46.028Z,101825.56
2022-12-20T07:06:21.679Z,101807.72
2022-12-20T07:08:57.379Z,101808.34
2022-12-20T07:11:32.088Z,101805.59
2022-12-20T07:14:00.113Z,101802.19
2022-12-20T07:16:59.344Z,101808.97
2022-12-20T07:19:34.946Z,101807.28
2022-12-20T07:22:10.707Z,101791.13
2022-12-20T07:24:40.356Z,101798.78
2022-12-20T07:27:51.816Z,101808.34
2022-12-20T07:30:21.594Z,101795.34
2022-12-20T07:32:49.340Z,101800.47
2022-12-20T07:35:23.064Z,101806.00
2022-12-20T07:37:59.609Z,101812.38
2022-12-20T07:40:36.388Z,101808.78
2022-12-20T07:43:04.655Z,101796.88
2022-12-20T07:45:42.359Z,101821.31
2022-12-20T07:48:21.563Z,101809.16
2022-12-20T07:51:00.627Z,101822.59
2022-12-20T07:53:28.357Z,101826.81
2022-12-20T07:56:03.085Z,101835.78
2022-12-20T07:58:36.887Z,101841.75
2022-12-20T08:01:14.608Z,101857.06
2022-12-20T08:03:50.425Z,101852.81
2022-12-20T08:06:22.207Z,101851.53
2022-12-20T08:08:53.938Z,101848.75
2022-12-20T08:11:22.559Z,101838.34
2022-12-20T08:13:57.415Z,101863.19
2022-12-20T08:16:27.881Z,101844.91
2022-12-20T08:19:02.763Z,101858.13
2022-12-20T08:21:31.634Z,101852.13
2022-12-20T08:23:59.391Z,101842.13
2022-12-20T08:26:42.931Z,101844.31
2022-12-20T08:29:11.036Z,101853.66
2022-12-20T08:31:50.426Z,101856.41
2022-12-20T08:34:18.614Z,101869.41
2022-12-20T08:36:46.341Z,101854.06
2022-12-20T08:39:14.751Z,101852.56
2022-12-20T08:41:42.432Z,101859.34
2022-12-20T08:44:13.040Z,101878.28
2022-12-20T08:46:43.176Z,101882.97
2022-12-20T08:49:11.033Z,101892.78
2022-12-20T08:51:39.590Z,101898.50
2022-12-20T08:54:09.042Z,101907.69
2022-12-20T08:56:37.713Z,101913.81
2022-12-20T08:59:06.754Z,101916.78
2022-12-20T09:01:37.078Z,101921.66
2022-12-20T09:04:11.965Z,101932.72
2022-12-20T09:06:39.754Z,101937.81
2022-12-20T09:09:07.786Z,101915.72
2022-12-20T09:11:36.375Z,101916.75
2022-12-20T09:14:06.182Z,101927.00
2022-12-20T09:16:33.866Z,101950.59
2022-12-20T09:19:05.977Z,101957.16
2022-12-20T09:21:36.102Z,101935.69
2022-12-20T09:24:05.641Z,101946.34
2022-12-20T09:26:36.292Z,101938.47
2022-12-20T09:29:04.963Z,101942.06
2022-12-20T09:31:34.008Z,101925.47
2022-12-20T09:34:01.922Z,101946.59
2022-12-20T09:36:31.543Z,101920.03
2022-12-20T09:39:02.207Z,101939.16
2022-12-20T09:41:34.184Z,101943.00
2022-12-20T09:44:25.279Z,101942.97
2022-12-20T09:47:04.954Z,101947.41
2022-12-20T09:49:47.733Z,101951.44
2022-12-20T09:52:20.775Z,101952.47
2022-12-20T09:54:59.759Z,101945.91
2022-12-20T09:58:15.743Z,101951.19
2022-12-20T10:00:53.220Z,101944.16
2022-12-20T10:03:30.168Z,101959.06
2022-12-20T10:06:25.424Z,101964.59
2022-12-20T10:09:03.799Z,101963.03
2022-12-20T10:11:51.423Z,101965.38
2022-12-20T10:14:39.260Z,101968.13
2022-12-20T10:17:48.076Z,101969.63
2022-12-20T10:20:20.779Z,101970.00
2022-12-20T10:23:10.331Z,101971.25
2022-12-20T10:25:40.376Z,101960.09
2022-12-20T10:28:37.790Z,101974.06
2022-12-20T10:31:07.785Z,101976.06
2022-12-20T10:33:36.588Z,101956.31
2022-12-20T10:36:25.283Z,101975.31
2022-12-20T10:39:02.593Z,101980.69
2022-12-20T10:41:50.107Z,101975.53
2022-12-20T10:44:24.331Z,101970.19
2022-12-20T10:46:56.951Z,101978.13
2022-12-20T11:11:47.959Z,101984.41
2022-12-20T11:22:21.802Z,101996.72
2022-12-20T11:25:29.172Z,101975.38
2022-12-20T11:29:12.861Z,101988.91
2022-12-20T11:31:47.895Z,101996.31
2022-12-20T11:34:54.935Z,101988.63
2022-12-20T11:37:27.574Z,101983.44
2022-12-20T11:45:09.258Z,101981.63
2022-12-20T11:48:16.577Z,101979.22
2022-12-20T12:17:38.751Z,101957.28
2022-12-20T12:19:43.322Z,101955.88
2022-12-20T12:22:30.456Z,101959.91
2022-12-20T12:25:57.213Z,101953.34
2022-12-20T12:41:14.053Z,101951.84
2022-12-20T12:52:08.222Z,101937.03
2022-12-20T12:58:49.058Z,101918.53
2022-12-20T13:05:06.857Z,101916.03
2022-12-20T13:07:41.253Z,101920.72
2022-12-20T13:10:11.492Z,101923.09
2022-12-20T13:13:29.582Z,101920.66
2022-12-20T13:27:41.204Z,101895.03
2022-12-20T13:30:28.687Z,101878.94
2022-12-20T13:37:06.476Z,101878.13
2022-12-20T13:54:49.473Z,101861.59
2022-12-20T13:57:34.382Z,101858.97
2022-12-20T14:00:07.836Z,101867.06
2022-12-20T14:10:00.743Z,101880.56
2022-12-20T14:19:36.390Z,101877.63
2022-12-20T14:26:03.320Z,101886.63
2022-12-20T14:29:33.648Z,101882.06
2022-12-20T14:32:22.799Z,101893.53
2022-12-20T14:34:52.536Z,101877.69
2022-12-20T14:38:20.420Z,101878.19
2022-12-20T14:55:29.501Z,101885.13
2022-12-20T15:00:39.412Z,101868.78
2022-12-20T15:03:37.049Z,101883.53
2022-12-20T15:06:27.248Z,101878.78
2022-12-20T15:16:26.385Z,101899.03
2022-12-20T15:26:44.622Z,101900.59
2022-12-20T15:30:26.724Z,101907.38
2022-12-20T15:39:33.830Z,101911.16
2022-12-20T15:42:38.491Z,101906.59
2022-12-20T15:53:36.572Z,101946.84
2022-12-20T15:57:42.450Z,101950.19
2022-12-20T16:26:33.412Z,101977.47
2022-12-20T16:29:07.938Z,101983.88
2022-12-20T16:32:51.669Z,101996.47
2022-12-20T16:39:18.927Z,101998.91
2022-12-20T16:41:46.959Z,102010.91
2022-12-20T16:44:17.145Z,102010.69
2022-12-20T16:46:47.650Z,102004.75
2022-12-20T16:49:24.835Z,102013.91
2022-12-20T16:51:54.284Z,102016.09
2022-12-20T16:54:29.647Z,102018.22
2022-12-20T16:56:58.277Z,102009.72
2022-12-20T16:59:29.996Z,102019.72
2022-12-20T17:02:00.243Z,102001.19
2022-12-20T17:04:34.867Z,102019.97
2022-12-20T17:07:05.752Z,102016.38
2022-12-20T17:09:36.501Z,102017.00
2022-12-20T17:12:04.818Z,102021.50
2022-12-20T17:14:33.539Z,102014.47
2022-12-20T17:17:04.358Z,102024.06
2022-12-20T17:19:41.721Z,102028.31
2022-12-20T17:25:09.858Z,102027.28
2022-12-20T17:27:50.454Z,102028.13
2022-12-20T17:30:19.797Z,102035.78
2022-12-20T17:32:51.095Z,102046.63
2022-12-20T17:35:44.381Z,102043.03
2022-12-20T17:41:38.044Z,102033.66
2022-12-20T17:44:29.129Z,102044.50
2022-12-20T18:04:06.382Z,102057.47
2022-12-20T18:17:35.828Z,102075.31
2022-12-20T18:31:28.898Z,102081.16
2022-12-20T18:34:01.345Z,102083.63
2022-12-20T18:36:35.324Z,102079.81
2022-12-20T18:39:25.301Z,102086.75
2022-12-20T18:45:28.912Z,102106.38
2022-12-20T18:47:57.894Z,102097.31
2022-12-20T19:14:16.630Z,102152.59
2022-12-20T19:17:15.158Z,102155.13
2022-12-20T19:42:33.840Z,102193.72
2022-12-20T20:22:52.321Z,102258.44
2022-12-20T23:14:16.006Z,102395.59
2022-12-20T23:16:48.700Z,102400.22
2022-12-20T23:19:16.791Z,102392.53
2022-12-20T23:22:03.439Z,102395.44
2022-12-20T23:24:33.731Z,102390.97
2022-12-20T23:27:06.218Z,102381.31
2022-12-20T23:32:30.137Z,102392.13
2022-12-20T23:35:06.834Z,102383.03
2022-12-20T23:37:38.173Z,102384.91
2022-12-20T23:40:13.653Z,102376.34
2022-12-20T23:42:43.237Z,102377.38
2022-12-20T23:45:16.885Z,102384.91
2022-12-20T23:47:50.773Z,102385.06
2022-12-20T23:50:21.905Z,102378.06
2022-12-20T23:52:50.086Z,102371.53
2022-12-20T23:55:21.549Z,102373.44
2022-12-20T23:58:06.570Z,102385.63
